Terminal Aerodrome Forecast
Issued by NWS

Home | Current Version | Previous Version | Text Only | Print | Product List | Glossary On
Versions: 1 2 3 4 5 6 7 8 9 10 11 12 13 14 15 16
000
FTUS46 KSEW 232335
TAFCLM
TAF
KCLM 232335Z 2400/2424 VRB05KT P6SM BKN070
      TEMPO 2400/2404 -SHSN BKN035
     FM240700 26013KT P6SM -SHRA OVC020
     FM241500 26018KT P6SM -SHRA BKN050=

USA.gov is the U.S. government's official web portal to all federal, state and local government web resources and services.